TimeMST,TemperatureF,Dew PointF,Humidity,Sea Level PressureIn,VisibilityMPH,Wind Direction,Wind SpeedMPH,Gust SpeedMPH,PrecipitationIn,Events,Conditions,WindDirDegrees,DateUTC
12:15 AM,46.4,44.6,93,30.26,3.0,WNW,5.8,-,N/A,Rain,Rain,290,2013-01-29 07:15:00
12:35 AM,46.4,44.6,93,30.27,4.0,West,5.8,-,N/A,Rain,Light Rain,270,2013-01-29 07:35:00
12:55 AM,46.4,44.6,93,30.27,3.0,WNW,5.8,-,N/A,,Heavy Drizzle,290,2013-01-29 07:55:00
1:15 AM,46.4,44.6,93,30.27,4.0,West,4.6,-,N/A,Rain,Light Rain,270,2013-01-29 08:15:00
1:35 AM,46.4,44.6,93,30.28,3.0,West,4.6,-,N/A,,Drizzle,270,2013-01-29 08:35:00
1:55 AM,46.4,44.6,93,30.28,3.0,West,4.6,-,N/A,Rain,Rain,270,2013-01-29 08:55:00
2:15 AM,46.4,44.6,93,30.28,3.0,WSW,6.9,-,N/A,,Light Drizzle,250,2013-01-29 09:15:00
2:35 AM,46.4,44.6,93,30.29,2.5,West,6.9,-,N/A,,Drizzle,270,2013-01-29 09:35:00
2:55 AM,46.4,44.6,93,30.29,3.0,West,6.9,-,N/A,,Drizzle,260,2013-01-29 09:55:00
3:15 AM,46.4,44.6,93,30.28,3.0,West,8.1,-,N/A,,Overcast,270,2013-01-29 10:15:00
3:35 AM,46.4,44.6,93,30.29,4.0,West,8.1,-,N/A,Rain,Light Rain,260,2013-01-29 10:35:00
3:55 AM,46.4,44.6,93,30.30,2.5,West,8.1,-,N/A,,Drizzle,270,2013-01-29 10:55:00
4:15 AM,46.4,44.6,93,30.30,2.5,West,5.8,-,N/A,,Drizzle,260,2013-01-29 11:15:00
4:35 AM,46.4,44.6,93,30.30,3.0,West,8.1,-,N/A,,Light Drizzle,280,2013-01-29 11:35:00
4:55 AM,46.4,44.6,93,30.31,2.5,West,8.1,-,N/A,Rain,Rain,280,2013-01-29 11:55:00
5:15 AM,46.4,44.6,93,30.31,2.5,West,8.1,-,0.01,Rain,Rain,280,2013-01-29 12:15:00
5:35 AM,46.4,46.4,100,30.31,2.5,West,9.2,-,0.01,,Drizzle,280,2013-01-29 12:35:00
5:55 AM,46.4,46.4,100,30.32,2.5,West,8.1,-,0.01,,Drizzle,280,2013-01-29 12:55:00
6:15 AM,46.4,46.4,100,30.32,2.5,West,6.9,-,N/A,Rain,Light Rain,280,2013-01-29 13:15:00
6:35 AM,46.4,46.4,100,30.33,3.0,West,6.9,-,N/A,Rain,Rain,270,2013-01-29 13:35:00
6:55 AM,46.4,46.4,100,30.33,2.0,WNW,12.7,-,N/A,Rain,Light Rain,300,2013-01-29 13:55:00
7:15 AM,46.4,46.4,100,30.34,3.0,WNW,9.2,-,N/A,Rain,Light Rain,290,2013-01-29 14:15:00
7:35 AM,46.4,46.4,100,30.34,2.5,West,11.5,-,N/A,,Drizzle,270,2013-01-29 14:35:00
7:55 AM,46.4,46.4,100,30.35,2.5,WNW,13.8,17.3,N/A,Rain,Rain,290,2013-01-29 14:55:00
8:15 AM,46.4,46.4,100,30.35,4.0,WNW,6.9,-,N/A,Rain,Light Rain,290,2013-01-29 15:15:00
8:35 AM,46.4,46.4,100,30.36,3.0,West,6.9,-,N/A,,Light Drizzle,270,2013-01-29 15:35:00
8:55 AM,46.4,46.4,100,30.37,1.8,West,4.6,-,N/A,,Light Drizzle,280,2013-01-29 15:55:00
9:15 AM,46.4,46.4,100,30.37,1.5,Calm,Calm,-,N/A,Rain,Heavy Rain,0,2013-01-29 16:15:00
9:35 AM,46.4,46.4,100,30.38,3.0,West,3.5,-,N/A,,Light Drizzle,270,2013-01-29 16:35:00
9:55 AM,46.4,46.4,100,30.39,1.8,Calm,Calm,-,N/A,,Heavy Drizzle,0,2013-01-29 16:55:00
10:15 AM,46.4,46.4,100,30.39,2.0,West,4.6,-,N/A,,Drizzle,280,2013-01-29 17:15:00
10:35 AM,46.4,46.4,100,30.41,2.5,West,5.8,-,N/A,,Overcast,280,2013-01-29 17:35:00
10:55 AM,46.4,46.4,100,30.41,4.0,West,8.1,-,0.01,Rain,Light Rain,270,2013-01-29 17:55:00
11:15 AM,48.2,48.2,100,30.42,3.0,WSW,4.6,-,N/A,,Overcast,250,2013-01-29 18:15:00
11:35 AM,48.2,46.4,93,30.42,5.0,West,5.8,-,N/A,,Overcast,270,2013-01-29 18:35:00
11:55 AM,48.2,46.4,93,30.43,3.0,WSW,6.9,-,N/A,,Overcast,250,2013-01-29 18:55:00
12:15 PM,48.2,46.4,93,30.44,2.5,West,5.8,-,0.01,,Overcast,270,2013-01-29 19:15:00
12:35 PM,48.2,46.4,93,30.44,3.0,WSW,8.1,-,0.02,,Overcast,250,2013-01-29 19:35:00
12:55 PM,48.2,48.2,100,30.45,2.5,West,8.1,-,0.03,,Overcast,260,2013-01-29 19:55:00
1:15 PM,48.2,48.2,100,30.45,3.0,West,4.6,-,0.03,,Overcast,260,2013-01-29 20:15:00
1:35 PM,48.2,46.4,93,30.45,5.0,WSW,6.9,-,0.08,,Overcast,250,2013-01-29 20:35:00
1:55 PM,48.2,46.4,93,30.45,4.0,WSW,8.1,-,0.15,,Overcast,240,2013-01-29 20:55:00
2:15 PM,48.2,46.4,93,30.45,4.0,SW,8.1,-,0.15,,Overcast,230,2013-01-29 21:15:00
2:35 PM,48.2,46.4,93,30.45,4.0,WSW,6.9,-,0.94,,Overcast,240,2013-01-29 21:35:00
2:55 PM,48.2,46.4,93,30.45,7.0,WSW,6.9,-,2.07,,Overcast,250,2013-01-29 21:55:00
3:15 PM,48.2,46.4,93,30.45,2.5,SW,6.9,-,0.44,,Light Drizzle,230,2013-01-29 22:15:00
3:35 PM,48.2,46.4,93,30.46,5.0,SW,8.1,-,0.44,,Overcast,220,2013-01-29 22:35:00
3:55 PM,48.2,46.4,93,30.46,2.5,SW,8.1,-,0.44,,Overcast,230,2013-01-29 22:55:00
4:15 PM,48.2,46.4,93,30.47,3.0,SW,6.9,-,N/A,,Overcast,220,2013-01-29 23:15:00
4:35 PM,48.2,48.2,100,30.47,2.0,WSW,5.8,-,0.01,,Drizzle,250,2013-01-29 23:35:00
4:55 PM,48.2,46.4,93,30.48,1.8,WSW,5.8,-,0.01,Rain,Light Rain,250,2013-01-29 23:55:00
5:15 PM,48.2,46.4,93,30.47,2.5,SW,5.8,-,N/A,,Light Drizzle,230,2013-01-30 00:15:00
5:35 PM,48.2,46.4,93,30.48,2.0,WSW,6.9,-,N/A,,Overcast,240,2013-01-30 00:35:00
5:55 PM,48.2,46.4,93,30.49,1.8,WSW,4.6,-,0.01,,Drizzle,240,2013-01-30 00:55:00
6:15 PM,48.2,46.4,93,30.49,1.5,WSW,9.2,-,0.01,,Drizzle,250,2013-01-30 01:15:00
6:35 PM,46.4,46.4,100,30.50,1.8,WSW,4.6,-,0.01,,Drizzle,250,2013-01-30 01:35:00
6:55 PM,46.4,46.4,100,30.50,2.5,West,4.6,-,0.01,,Drizzle,260,2013-01-30 01:55:00
7:15 PM,46.4,46.4,100,30.50,3.0,WSW,5.8,-,0.01,Rain,Light Rain,250,2013-01-30 02:15:00
7:35 PM,46.4,46.4,100,30.49,5.0,SW,3.5,-,0.02,Rain,Light Rain,220,2013-01-30 02:35:00
7:55 PM,46.4,46.4,100,30.50,5.0,WSW,5.8,-,0.02,,Overcast,250,2013-01-30 02:55:00
8:15 PM,46.4,46.4,100,30.50,4.0,WSW,3.5,-,0.01,Rain,Light Rain,250,2013-01-30 03:15:00
8:35 PM,46.4,46.4,100,30.50,7.0,WSW,3.5,-,0.01,,Light Drizzle,240,2013-01-30 03:35:00
8:55 PM,46.4,46.4,100,30.51,10.0,SW,3.5,-,0.02,,Overcast,230,2013-01-30 03:55:00
9:15 PM,46.4,46.4,100,30.50,10.0,South,5.8,-,N/A,,Overcast,180,2013-01-30 04:15:00
9:35 PM,46.4,46.4,100,30.50,10.0,SSW,3.5,-,N/A,,Overcast,200,2013-01-30 04:35:00
9:55 PM,46.4,46.4,100,30.50,10.0,South,4.6,-,N/A,,Overcast,180,2013-01-30 04:55:00
10:15 PM,46.4,46.4,100,30.49,7.0,SE,3.5,-,N/A,,Overcast,140,2013-01-30 05:15:00
10:35 PM,46.4,46.4,100,30.49,5.0,SE,3.5,-,N/A,,Overcast,140,2013-01-30 05:35:00
10:55 PM,46.4,46.4,100,30.49,3.0,SE,3.5,-,N/A,,Light Drizzle,140,2013-01-30 05:55:00
11:15 PM,46.4,46.4,100,30.48,2.5,SSE,4.6,-,N/A,,Overcast,160,2013-01-30 06:15:00
11:35 PM,46.4,46.4,100,30.48,3.0,SSE,3.5,-,N/A,,Drizzle,150,2013-01-30 06:35:00
11:55 PM,46.4,46.4,100,30.48,2.5,Calm,Calm,-,0.01,,Drizzle,0,2013-01-30 06:55:00